createdAt,value
2023-02-03T00:00:01.327Z,1.12
2023-02-03T00:02:28.792Z,1.15
2023-02-03T00:04:56.128Z,1.16
2023-02-03T00:07:23.641Z,1.11
2023-02-03T00:09:51.244Z,1.13
2023-02-03T00:12:18.702Z,1.25
2023-02-03T00:14:45.991Z,1.28
2023-02-03T00:17:15.163Z,1.31
2023-02-03T00:19:42.576Z,1.33
2023-02-03T00:22:10.085Z,1.27
2023-02-03T00:24:37.647Z,1.23
2023-02-03T00:27:05.055Z,1.29
2023-02-03T00:29:32.589Z,1.34
2023-02-03T00:32:00.045Z,1.35
2023-02-03T00:34:31.411Z,1.33
2023-02-03T00:36:59.201Z,1.33
2023-02-03T00:39:26.610Z,1.34
2023-02-03T00:41:53.981Z,1.29
2023-02-03T00:44:21.489Z,1.37
2023-02-03T00:46:49.040Z,1.44
2023-02-03T00:49:16.535Z,1.55
2023-02-03T00:51:43.872Z,1.64
2023-02-03T00:54:11.293Z,1.67
2023-02-03T00:56:38.678Z,1.66
2023-02-03T00:59:07.010Z,1.72
2023-02-03T01:01:36.257Z,1.69
2023-02-03T01:04:04.435Z,1.69
2023-02-03T01:06:34.314Z,1.63
2023-02-03T01:09:03.709Z,1.61
2023-02-03T01:11:32.909Z,1.60
2023-02-03T01:14:01.775Z,1.59
2023-02-03T01:16:31.718Z,1.66
2023-02-03T01:18:59.108Z,1.63
2023-02-03T01:21:28.747Z,1.55
2023-02-03T01:23:56.478Z,1.58
2023-02-03T01:26:24.434Z,1.54
2023-02-03T01:29:00.368Z,1.60
2023-02-03T01:31:37.027Z,1.56
2023-02-03T01:34:12.941Z,1.56
2023-02-03T01:36:40.655Z,1.56
2023-02-03T01:39:08.461Z,1.61
2023-02-03T01:41:39.478Z,1.56
2023-02-03T01:44:45.969Z,1.60
2023-02-03T01:47:35.045Z,1.64
2023-02-03T01:50:30.312Z,1.63
2023-02-03T01:53:04.551Z,1.71
2023-02-03T01:55:38.394Z,1.69
2023-02-03T01:58:13.751Z,1.62
2023-02-03T02:00:42.297Z,1.61
2023-02-03T02:03:10.819Z,1.57
2023-02-03T02:05:46.985Z,1.62
2023-02-03T02:08:18.147Z,1.62
2023-02-03T02:10:46.043Z,1.59
2023-02-03T02:13:15.524Z,1.63
2023-02-03T02:16:17.979Z,1.67
2023-02-03T02:19:03.116Z,1.73
2023-02-03T02:22:02.795Z,1.77
2023-02-03T02:24:53.473Z,1.94
2023-02-03T02:27:54.479Z,2.09
2023-02-03T02:30:51.015Z,2.22
2023-02-03T02:33:44.581Z,2.29
2023-02-03T02:36:46.915Z,2.32
2023-02-03T02:39:51.438Z,2.38
2023-02-03T02:42:42.676Z,2.46
2023-02-03T02:45:34.164Z,2.46
2023-02-03T02:48:15.475Z,2.56
2023-02-03T02:50:50.737Z,2.51
2023-02-03T02:53:24.121Z,2.66
2023-02-03T02:55:54.509Z,2.75
2023-02-03T02:58:23.480Z,2.84
2023-02-03T03:00:51.693Z,2.89
2023-02-03T03:03:24.464Z,2.97
2023-02-03T03:06:18.365Z,2.97
2023-02-03T03:09:42.568Z,2.93
2023-02-03T03:12:22.703Z,2.96
2023-02-03T03:14:59.212Z,2.94
2023-02-03T03:17:41.007Z,2.93
2023-02-03T03:20:24.813Z,2.92
2023-02-03T03:23:06.271Z,2.98
2023-02-03T03:25:45.948Z,3.01
2023-02-03T03:28:27.546Z,3.03
2023-02-03T03:30:55.188Z,3.03
2023-02-03T03:33:23.406Z,3.04
2023-02-03T03:36:03.283Z,3.08
2023-02-03T03:38:55.021Z,3.08
2023-02-03T03:41:40.046Z,3.08
2023-02-03T03:44:14.571Z,3.11
2023-02-03T03:46:50.225Z,3.13
2023-02-03T03:49:22.207Z,3.15
2023-02-03T03:51:56.476Z,3.15
2023-02-03T03:54:27.770Z,3.20
2023-02-03T03:57:02.729Z,3.17
2023-02-03T03:59:39.291Z,3.14
2023-02-03T04:02:06.888Z,3.18
2023-02-03T04:04:37.750Z,3.16
2023-02-03T04:07:05.336Z,3.16
2023-02-03T04:09:36.689Z,3.18
2023-02-03T04:12:06.340Z,3.18
2023-02-03T04:14:40.887Z,3.12
2023-02-03T04:17:09.518Z,2.97
2023-02-03T04:19:36.808Z,2.77
2023-02-03T04:22:06.436Z,2.68
2023-02-03T04:24:33.855Z,2.71
2023-02-03T04:27:01.562Z,2.81
2023-02-03T04:29:29.598Z,2.84
2023-02-03T04:31:57.360Z,2.87
2023-02-03T04:34:24.820Z,2.90
2023-02-03T04:36:52.197Z,2.92
2023-02-03T04:39:19.616Z,2.94
2023-02-03T04:41:46.969Z,2.92
2023-02-03T04:44:14.466Z,2.82
2023-02-03T04:46:41.769Z,2.64
2023-02-03T04:49:11.706Z,2.49
2023-02-03T04:51:39.150Z,2.39
2023-02-03T04:54:06.712Z,2.24
2023-02-03T04:56:34.053Z,2.17
2023-02-03T04:59:01.441Z,2.07
2023-02-03T05:01:29.038Z,2.10
2023-02-03T05:03:56.460Z,2.00
2023-02-03T05:06:30.067Z,1.95
2023-02-03T05:08:58.374Z,1.90
2023-02-03T05:11:26.123Z,1.85
2023-02-03T05:13:54.490Z,1.83
2023-02-03T05:16:21.949Z,1.80
2023-02-03T05:18:49.826Z,1.74
2023-02-03T05:21:17.789Z,1.73
2023-02-03T05:23:45.302Z,1.67
2023-02-03T05:26:12.856Z,1.62
2023-02-03T05:28:40.206Z,1.58
2023-02-03T05:31:07.773Z,1.57
2023-02-03T05:33:35.136Z,1.53
2023-02-03T05:36:02.460Z,1.43
2023-02-03T05:38:31.000Z,1.39
2023-02-03T05:41:17.138Z,1.31
2023-02-03T05:43:44.567Z,1.26
2023-02-03T05:46:12.022Z,1.33
2023-02-03T05:48:39.434Z,1.31
2023-02-03T05:51:06.792Z,1.29
2023-02-03T05:53:34.124Z,1.29
2023-02-03T05:56:01.513Z,1.32
2023-02-03T05:58:28.884Z,1.28
2023-02-03T06:00:56.252Z,1.33
2023-02-03T06:03:23.779Z,1.35
2023-02-03T06:05:51.162Z,1.42
2023-02-03T06:08:18.512Z,1.53
2023-02-03T06:10:45.923Z,2.04
2023-02-03T06:13:16.526Z,3.58
2023-02-03T06:15:44.328Z,3.91
2023-02-03T06:18:11.711Z,3.59
2023-02-03T06:20:39.120Z,2.83
2023-02-03T06:23:06.487Z,2.35
2023-02-03T06:25:33.894Z,2.07
2023-02-03T06:28:01.443Z,1.94
2023-02-03T06:30:29.536Z,1.93
2023-02-03T06:32:57.056Z,1.96
2023-02-03T06:35:24.410Z,2.35
2023-02-03T06:37:51.906Z,4.79
2023-02-03T06:40:19.540Z,5.01
2023-02-03T06:42:48.468Z,4.59
2023-02-03T06:45:16.224Z,4.44
2023-02-03T06:47:45.798Z,6.19
2023-02-03T06:50:16.192Z,8.19
2023-02-03T06:52:43.723Z,10.09
2023-02-03T06:55:11.251Z,12.06
2023-02-03T06:57:47.612Z,12.22
2023-02-03T07:00:19.299Z,8.18
2023-02-03T07:02:57.495Z,6.44
2023-02-03T07:05:25.801Z,6.05
2023-02-03T07:07:53.739Z,5.51
2023-02-03T07:10:21.366Z,4.94
2023-02-03T07:12:50.835Z,4.46
2023-02-03T07:15:19.051Z,4.34
2023-02-03T07:17:54.880Z,4.17
2023-02-03T07:20:23.966Z,4.16
2023-02-03T07:22:56.608Z,4.10
2023-02-03T07:25:25.192Z,4.49
2023-02-03T07:27:52.722Z,4.55
2023-02-03T07:30:20.440Z,4.52
2023-02-03T07:32:52.299Z,4.42
2023-02-03T07:35:20.345Z,4.43
2023-02-03T07:37:47.861Z,4.33
2023-02-03T07:40:17.398Z,4.40
2023-02-03T07:42:47.962Z,4.40
2023-02-03T07:45:17.829Z,4.49
2023-02-03T07:47:45.424Z,4.54
2023-02-03T07:50:13.659Z,4.61
2023-02-03T07:52:41.122Z,4.46
2023-02-03T07:55:09.289Z,5.45
2023-02-03T07:57:37.344Z,7.19
2023-02-03T08:00:05.507Z,9.73
2023-02-03T08:02:40.523Z,10.37
2023-02-03T08:05:08.589Z,9.20
2023-02-03T08:07:36.119Z,8.17
2023-02-03T08:10:04.676Z,8.60
2023-02-03T08:12:31.900Z,8.66
2023-02-03T08:14:59.131Z,9.47
2023-02-03T08:17:26.807Z,9.96
2023-02-03T08:19:54.235Z,9.00
2023-02-03T08:22:21.652Z,8.96
2023-02-03T08:24:49.341Z,9.18
2023-02-03T08:27:20.073Z,9.48
2023-02-03T08:29:48.328Z,9.52
2023-02-03T08:32:21.290Z,9.86
2023-02-03T08:34:50.191Z,10.67
2023-02-03T08:37:21.183Z,11.30
2023-02-03T08:39:48.645Z,10.88
2023-02-03T08:42:16.804Z,10.93
2023-02-03T08:44:44.875Z,9.16
2023-02-03T08:47:12.894Z,8.20
2023-02-03T08:49:40.918Z,7.00
2023-02-03T08:52:12.021Z,7.47
2023-02-03T08:54:39.583Z,7.46
2023-02-03T08:57:07.897Z,7.27
2023-02-03T08:59:38.854Z,8.05
2023-02-03T09:02:11.297Z,9.56
2023-02-03T09:04:38.702Z,10.19
2023-02-03T09:07:06.184Z,9.13
2023-02-03T09:09:33.621Z,8.11
2023-02-03T09:12:02.358Z,7.59
2023-02-03T09:14:31.481Z,8.28
2023-02-03T09:17:00.843Z,7.39
2023-02-03T09:19:28.206Z,8.59
2023-02-03T09:21:57.242Z,9.04
2023-02-03T09:24:25.042Z,9.36
2023-02-03T09:26:53.054Z,9.17
2023-02-03T09:29:20.612Z,9.25
2023-02-03T09:31:52.727Z,10.32
2023-02-03T09:34:21.415Z,9.19
2023-02-03T09:36:48.831Z,8.30
2023-02-03T09:39:16.218Z,8.42
2023-02-03T09:42:19.859Z,10.21
2023-02-03T09:45:13.856Z,10.40
2023-02-03T09:47:44.812Z,10.56
2023-02-03T09:50:20.875Z,10.33
2023-02-03T09:52:50.038Z,10.46
2023-02-03T09:55:56.037Z,10.84
2023-02-03T09:58:24.981Z,11.44
2023-02-03T10:01:02.548Z,11.45
2023-02-03T10:03:41.828Z,11.11
2023-02-03T10:06:37.608Z,12.03
2023-02-03T10:09:32.237Z,11.76
2023-02-03T10:12:15.929Z,11.75
2023-02-03T10:15:02.564Z,11.92
2023-02-03T10:17:58.543Z,11.26
2023-02-03T10:20:41.101Z,12.47
2023-02-03T10:23:29.770Z,12.10
2023-02-03T10:26:03.396Z,12.13
2023-02-03T10:28:40.016Z,11.94
2023-02-03T10:31:22.045Z,12.65
2023-02-03T10:34:11.311Z,13.01
2023-02-03T10:36:55.955Z,12.51
2023-02-03T10:39:43.205Z,11.62
2023-02-03T10:42:13.612Z,11.93
2023-02-03T10:44:46.876Z,11.48
2023-02-03T10:47:39.256Z,12.43
2023-02-03T10:50:22.650Z,11.66
2023-02-03T10:52:50.261Z,11.52
2023-02-03T10:55:26.684Z,11.84
2023-02-03T10:57:55.231Z,11.46
2023-02-03T11:00:30.070Z,12.03
2023-02-03T11:03:25.433Z,11.68
2023-02-03T11:06:13.135Z,12.20
2023-02-03T11:08:48.277Z,11.62
2023-02-03T11:11:21.660Z,12.01
2023-02-03T11:14:09.359Z,11.63
2023-02-03T11:16:39.627Z,12.05
2023-02-03T11:19:18.061Z,11.15
2023-02-03T11:21:52.143Z,11.74
2023-02-03T11:24:45.818Z,11.57
2023-02-03T11:27:18.542Z,11.52
2023-02-03T11:29:50.606Z,11.28
2023-02-03T11:32:35.121Z,11.17
2023-02-03T11:35:15.374Z,10.92
2023-02-03T11:37:46.368Z,11.39
2023-02-03T11:40:18.220Z,11.29
2023-02-03T11:43:06.080Z,11.49
2023-02-03T11:45:45.953Z,10.58
2023-02-03T11:48:30.640Z,11.11
2023-02-03T11:51:44.955Z,10.68
2023-02-03T11:54:31.216Z,10.45
2023-02-03T11:57:05.195Z,10.78
2023-02-03T11:59:49.190Z,11.32
2023-02-03T12:03:11.903Z,10.95
2023-02-03T12:05:44.747Z,10.39
2023-02-03T12:08:21.692Z,10.12
2023-02-03T12:11:03.107Z,9.98
2023-02-03T12:13:59.825Z,10.34
2023-02-03T12:16:55.807Z,10.53
2023-02-03T12:19:57.027Z,10.64
2023-02-03T12:22:27.159Z,10.78
2023-02-03T12:25:44.593Z,11.43
2023-02-03T12:28:54.675Z,11.50
2023-02-03T12:31:32.414Z,10.45
2023-02-03T12:34:29.325Z,10.88
2023-02-03T12:37:10.136Z,11.39
2023-02-03T12:39:53.498Z,10.88
2023-02-03T12:42:31.442Z,11.22
2023-02-03T12:45:28.183Z,11.70
2023-02-03T12:48:43.888Z,11.70
2023-02-03T12:51:23.691Z,11.56
2023-02-03T12:54:00.107Z,11.17
2023-02-03T12:56:40.294Z,10.88
2023-02-03T12:59:18.483Z,11.05
2023-02-03T13:01:58.594Z,11.27
2023-02-03T13:04:43.861Z,11.27
2023-02-03T13:07:24.791Z,10.84
2023-02-03T13:10:14.655Z,10.52
2023-02-03T13:12:49.774Z,10.22
2023-02-03T13:15:31.723Z,10.03
2023-02-03T13:18:05.596Z,10.16
2023-02-03T13:20:37.128Z,10.12
2023-02-03T13:23:08.265Z,10.15
2023-02-03T13:26:15.021Z,10.03
2023-02-03T13:29:22.648Z,9.94
2023-02-03T13:32:27.428Z,9.97
2023-02-03T13:35:43.811Z,9.92
2023-02-03T13:38:49.328Z,10.02
2023-02-03T13:41:54.798Z,10.18
2023-02-03T13:44:28.540Z,10.18
2023-02-03T13:46:59.586Z,10.07
2023-02-03T13:49:35.066Z,10.07
2023-02-03T13:52:03.616Z,10.06
2023-02-03T13:54:44.185Z,9.97
2023-02-03T13:57:28.431Z,9.66
2023-02-03T13:59:55.862Z,9.94
2023-02-03T14:02:59.367Z,10.07
2023-02-03T14:05:48.860Z,10.14
2023-02-03T14:08:28.117Z,10.04
2023-02-03T14:11:36.281Z,9.99
2023-02-03T14:14:12.409Z,9.76
2023-02-03T14:16:54.537Z,9.62
2023-02-03T14:19:22.149Z,9.41
2023-02-03T14:21:57.546Z,9.42
2023-02-03T14:24:33.413Z,9.45
2023-02-03T14:27:05.008Z,9.47
2023-02-03T14:29:36.613Z,9.73
2023-02-03T14:32:10.665Z,9.74
2023-02-03T14:34:42.608Z,9.71
2023-02-03T14:37:17.829Z,9.69
2023-02-03T14:40:07.470Z,9.86
2023-02-03T14:43:10.562Z,9.85
2023-02-03T14:46:16.362Z,9.79
2023-02-03T14:49:21.385Z,9.52
2023-02-03T14:52:23.941Z,9.63
2023-02-03T14:55:08.084Z,9.62
2023-02-03T14:57:49.583Z,9.55
2023-02-03T15:00:19.673Z,9.45
2023-02-03T15:03:11.943Z,9.39
2023-02-03T15:05:54.612Z,9.41
2023-02-03T15:08:44.395Z,9.24
2023-02-03T15:11:33.652Z,9.04
2023-02-03T15:14:26.630Z,8.84
2023-02-03T15:17:01.396Z,8.75
2023-02-03T15:19:36.010Z,8.58
2023-02-03T15:22:28.317Z,8.41
2023-02-03T15:25:02.705Z,8.28
2023-02-03T15:27:32.951Z,8.15
2023-02-03T15:30:16.775Z,8.03
2023-02-03T15:33:02.860Z,7.90
2023-02-03T15:35:36.605Z,7.81
2023-02-03T15:38:15.235Z,7.75
2023-02-03T15:40:49.344Z,7.61
2023-02-03T15:43:27.574Z,7.49
2023-02-03T15:45:58.804Z,7.44
2023-02-03T15:48:37.459Z,7.37
2023-02-03T15:51:32.003Z,7.28
2023-02-03T15:54:06.397Z,7.24
2023-02-03T15:56:48.789Z,7.21
2023-02-03T15:59:46.693Z,7.20
2023-02-03T16:02:31.567Z,7.17
2023-02-03T16:05:06.377Z,7.13
2023-02-03T16:07:33.858Z,7.07
2023-02-03T16:10:01.631Z,7.04
2023-02-03T16:12:32.305Z,7.05
2023-02-03T16:15:01.999Z,6.97
2023-02-03T16:17:33.747Z,6.89
2023-02-03T16:20:13.447Z,6.75
2023-02-03T16:22:47.747Z,6.62
2023-02-03T16:25:32.018Z,6.54
2023-02-03T16:28:32.419Z,6.48
2023-02-03T16:31:34.175Z,6.45
2023-02-03T16:34:32.028Z,6.43
2023-02-03T16:37:18.482Z,6.51
2023-02-03T16:40:04.882Z,6.61
2023-02-03T16:42:59.172Z,6.69
2023-02-03T16:45:45.212Z,6.75
2023-02-03T16:48:32.153Z,6.78
2023-02-03T16:51:10.095Z,6.81
2023-02-03T16:53:37.579Z,6.85
2023-02-03T16:56:05.690Z,6.84
2023-02-03T16:58:33.133Z,6.82
2023-02-03T17:01:03.890Z,6.82
2023-02-03T17:03:34.606Z,6.77
2023-02-03T17:06:06.285Z,6.80
2023-02-03T17:08:34.367Z,6.79
2023-02-03T17:11:15.677Z,6.81
2023-02-03T17:13:43.459Z,6.84
2023-02-03T17:16:20.584Z,6.81
2023-02-03T17:18:48.005Z,6.83
2023-02-03T17:21:24.078Z,6.83
2023-02-03T17:23:51.624Z,6.82
2023-02-03T17:26:19.315Z,6.83
2023-02-03T17:28:46.808Z,6.85
2023-02-03T17:31:20.564Z,6.85
2023-02-03T17:33:52.239Z,6.85
2023-02-03T17:36:21.894Z,6.85
2023-02-03T17:55:25.531Z,7.28
2023-02-03T17:57:52.968Z,7.29
2023-02-03T18:00:20.668Z,7.33
2023-02-03T18:02:52.543Z,7.37
2023-02-03T18:05:19.950Z,7.52
2023-02-03T18:10:15.947Z,7.57
2023-02-03T18:12:43.360Z,7.52
2023-02-03T18:15:10.752Z,7.39
2023-02-03T18:17:38.092Z,7.34
2023-02-03T18:20:06.233Z,7.55
2023-02-03T18:22:34.577Z,7.51
2023-02-03T18:25:01.959Z,7.39
2023-02-03T18:27:29.413Z,7.34
2023-02-03T18:29:56.762Z,7.29
2023-02-03T18:32:24.164Z,7.24
2023-02-03T18:34:51.680Z,7.13
2023-02-03T18:37:19.034Z,7.17
2023-02-03T18:39:47.217Z,7.20
2023-02-03T18:42:14.945Z,7.19
2023-02-03T18:44:44.279Z,7.56
2023-02-03T18:47:11.739Z,7.82
2023-02-03T18:49:39.666Z,7.84
2023-02-03T18:52:07.076Z,7.82
2023-02-03T18:54:34.498Z,7.82
2023-02-03T18:57:03.086Z,7.92
2023-02-03T18:59:30.365Z,7.99
2023-02-03T19:01:57.827Z,8.05
2023-02-03T19:04:25.301Z,8.11
2023-02-03T19:06:52.756Z,8.01
2023-02-03T19:09:22.324Z,7.84
2023-02-03T19:11:49.847Z,7.67
2023-02-03T19:14:17.562Z,7.50
2023-02-03T19:16:45.147Z,7.33
2023-02-03T19:19:14.167Z,7.22
2023-02-03T19:21:41.572Z,7.06
2023-02-03T19:24:09.284Z,6.89
2023-02-03T19:26:36.845Z,6.74
2023-02-03T19:29:04.192Z,6.59
2023-02-03T19:31:31.762Z,6.48
2023-02-03T19:34:02.358Z,6.36
2023-02-03T19:36:30.843Z,6.25
2023-02-03T19:38:58.218Z,6.17
2023-02-03T19:41:30.791Z,6.11
2023-02-03T19:43:58.087Z,6.07
2023-02-03T19:46:27.433Z,6.06
2023-02-03T19:48:54.775Z,6.07
2023-02-03T19:51:22.141Z,6.06
2023-02-03T19:53:49.610Z,6.03
2023-02-03T19:56:17.050Z,6.02
2023-02-03T19:58:46.026Z,6.02
2023-02-03T20:01:13.470Z,6.01
2023-02-03T20:03:42.707Z,6.02
2023-02-03T20:06:10.650Z,6.03
2023-02-03T20:08:38.241Z,6.01
2023-02-03T20:11:05.867Z,6.01
2023-02-03T20:13:33.389Z,5.98
2023-02-03T20:16:01.145Z,6.00
2023-02-03T20:18:28.562Z,5.98
2023-02-03T20:20:57.059Z,5.94
2023-02-03T20:23:24.779Z,5.94
2023-02-03T20:25:54.722Z,5.91
2023-02-03T20:28:25.089Z,5.86
2023-02-03T20:30:56.607Z,5.85
2023-02-03T20:33:27.854Z,5.81
2023-02-03T20:35:57.009Z,5.77
2023-02-03T20:38:24.827Z,5.74
2023-02-03T20:40:52.237Z,5.69
2023-02-03T20:43:27.261Z,5.61
2023-02-03T20:45:55.120Z,5.56
2023-02-03T20:48:25.450Z,5.49
2023-02-03T20:50:53.088Z,5.45
2023-02-03T20:53:26.113Z,5.44
2023-02-03T20:56:01.574Z,5.40
2023-02-03T20:58:35.939Z,5.35
2023-02-03T21:01:14.378Z,5.32
2023-02-03T21:04:00.519Z,5.27
2023-02-03T21:06:31.586Z,5.23
2023-02-03T21:09:19.288Z,5.19
2023-02-03T21:11:46.724Z,5.16
2023-02-03T21:14:29.104Z,5.10
2023-02-03T21:16:56.545Z,5.03
2023-02-03T21:19:33.720Z,5.00
2023-02-03T21:22:20.648Z,4.93
2023-02-03T21:24:52.514Z,4.88
2023-02-03T21:27:32.476Z,4.87
2023-02-03T21:30:24.573Z,4.85
2023-02-03T21:32:51.950Z,4.80
2023-02-03T21:35:29.783Z,4.79
2023-02-03T21:38:03.930Z,4.76
2023-02-03T21:40:34.515Z,4.74
2023-02-03T21:43:03.271Z,4.73
2023-02-03T21:45:38.267Z,4.72
2023-02-03T21:48:32.488Z,4.74
2023-02-03T21:51:15.413Z,4.74
2023-02-03T21:53:55.375Z,4.73
2023-02-03T21:56:42.710Z,4.72
2023-02-03T21:59:34.869Z,4.71
2023-02-03T22:02:03.566Z,4.74
2023-02-03T22:04:31.672Z,4.74
2023-02-03T22:06:58.890Z,4.76
2023-02-03T22:09:27.678Z,4.78
2023-02-03T22:11:55.092Z,4.79
2023-02-03T22:14:22.481Z,4.79
2023-02-03T22:16:50.624Z,4.81
2023-02-03T22:19:17.995Z,4.80
2023-02-03T22:21:47.688Z,4.81
2023-02-03T22:24:15.033Z,4.84
2023-02-03T22:26:42.592Z,4.86
2023-02-03T22:29:09.940Z,4.87
2023-02-03T22:31:37.412Z,4.91
2023-02-03T22:34:04.768Z,4.93
2023-02-03T22:36:32.215Z,4.97
2023-02-03T22:38:59.587Z,4.98
2023-02-03T22:41:27.067Z,5.02
2023-02-03T22:43:54.379Z,5.07
2023-02-03T22:46:21.808Z,5.12
2023-02-03T22:48:49.196Z,5.15
2023-02-03T22:51:16.522Z,5.15
2023-02-03T22:53:43.935Z,5.13
2023-02-03T22:56:11.441Z,5.13
2023-02-03T22:58:38.819Z,5.16
2023-02-03T23:01:06.365Z,5.22
2023-02-03T23:03:33.771Z,5.27
2023-02-03T23:06:01.214Z,5.27
2023-02-03T23:08:28.666Z,5.23
2023-02-03T23:10:56.325Z,5.20
2023-02-03T23:13:23.887Z,5.21
2023-02-03T23:15:51.582Z,5.27
2023-02-03T23:18:18.972Z,5.29
2023-02-03T23:20:46.422Z,5.31
2023-02-03T23:23:14.362Z,5.27
2023-02-03T23:25:41.777Z,5.27
2023-02-03T23:28:09.261Z,5.34
2023-02-03T23:30:37.044Z,5.41
2023-02-03T23:33:04.443Z,5.43
2023-02-03T23:35:46.737Z,5.50
2023-02-03T23:38:16.825Z,5.61
2023-02-03T23:40:44.821Z,5.74
2023-02-03T23:43:12.402Z,5.84
2023-02-03T23:45:40.864Z,5.93
2023-02-03T23:48:08.755Z,6.02
2023-02-03T23:50:36.290Z,6.25
2023-02-03T23:53:04.073Z,6.25
2023-02-03T23:55:31.641Z,6.21
2023-02-03T23:57:59.175Z,6.18
